Jump to content

  •  

FIRST AIR FLIGHT 7F5850 FLOWN ON 06-01-2017 BY CAPTAIN ADEL CABALLIN

Pilot StatsCaptain Adel Caballin (LDP11) • 710.2 total hours • 384 total flights [View Logbook]
FLIGHT DETAILS
StatusReceived and approved on 2017-06-01 at 19:06:52
Origin AirportYellowknife (CYZF) • Yellowknife, Northwest Territories, Canada (675 feet MSL)
Filed Flight PlanFLIGHT PLANNER OFFLINE
Destination AirportKugluktuk (CYCO) • Kugluktuk, Nunavut, Canada (74 feet MSL)
Alternate AirportYellowknife (CYZF) • Yellowknife, Northwest Territories, Canada (675 feet MSL)
AirlineFirst Air
AircraftATR 42-300 (AT4 / ATR42-300)
FS Aircraft UsedAtr 42-320 First air
Cruising AltitudeFL220
Distance Flown322 nautical miles
Passengers Onboard23 passengers (47.92% full)
DEPARTURE DETAILS
Time Out09:04:04
Taxi Data30,879 lbs total with 5,078 lbs of fuel onboard
Takeoff Data09:17:52 (14 minutes after leaving gate/ramp) • 30,785 lbs total • 3° pitch at 126 knots
Departure METARCYZF 012100Z 08011G19KT 15SM BKN074 18/10 A2952 RMK AC6 SLP005 DENSITY ALT 1700FT
ARRIVAL DETAILS
Landing Data10:55:25 • 29,044 lbs total • 1° pitch doing 94 knots at a rate of -95.35 feet/minute with 3,197 lbs of fuel onboard
Time In11:03:11 (8 minutes after landing)
Ramp Weight28,998 lbs total
Total Fuel Used1,881 lbs
Total Block Time02:01:19 (2 hours) while 22 minutes were spent on the ground
Arrival METARCYCO 012300Z 36009KT 15SM FEW050 FEW100 FEW300 04/01 A2982 RMK CF1AC1CI2 CF TR AC TR SLP102
MISCELLANEOUS DETAILS
LiveDISPATCH Version4.8.3.1
FS Version
FSUIPC Version4.93
OS VersionWindows 7 32-bit
Screen Resolution1920 x 1080
Pilot's CommentsNo Comments Reported
FLIGHT MAP